Terminal Aerodrome Forecast
Issued by NWS Portland, ME

Home | Current Version | Previous Version | Text Only | Print | Product List | Glossary On
Versions: 1 2 3 4 5 6 7 8 9 10 11 12 13 14 15 16
000
FTUS41 KGYX 201456 AAA
TAFPWM
TAF AMD
KPWM 201456Z 2015/2112 20010G15KT P6SM OVC040
     FM210100 20006KT 5SM BR BKN012
     FM210400 19004KT 3SM BR BKN006=

USA.gov is the U.S. government's official web portal to all federal, state and local government web resources and services.